sensor_id;sensor_type;location;lat;lon;timestamp;temperature;humidity
13521;DHT22;6832;51.186;3.236;2024-01-30T00:01:53;25.50;37.20
13521;DHT22;6832;51.186;3.236;2024-01-30T00:04:20;25.50;36.60
13521;DHT22;6832;51.186;3.236;2024-01-30T00:06:47;25.50;36.60
13521;DHT22;6832;51.186;3.236;2024-01-30T00:09:15;25.50;36.60
13521;DHT22;6832;51.186;3.236;2024-01-30T00:11:42;25.50;36.60
13521;DHT22;6832;51.186;3.236;2024-01-30T00:14:09;25.50;36.60
13521;DHT22;6832;51.186;3.236;2024-01-30T00:16:36;25.50;36.60
13521;DHT22;6832;51.186;3.236;2024-01-30T00:19:03;25.50;36.70
13521;DHT22;6832;51.186;3.236;2024-01-30T00:21:30;25.50;36.60
13521;DHT22;6832;51.186;3.236;2024-01-30T00:23:57;25.50;36.70
13521;DHT22;6832;51.186;3.236;2024-01-30T00:26:25;25.40;36.60
13521;DHT22;6832;51.186;3.236;2024-01-30T00:28:52;25.50;36.70
13521;DHT22;6832;51.186;3.236;2024-01-30T00:31:19;25.40;36.60
13521;DHT22;6832;51.186;3.236;2024-01-30T00:33:45;25.40;36.70
13521;DHT22;6832;51.186;3.236;2024-01-30T00:36:12;25.40;36.60
13521;DHT22;6832;51.186;3.236;2024-01-30T00:38:39;25.40;36.70
13521;DHT22;6832;51.186;3.236;2024-01-30T00:41:08;25.40;36.70
13521;DHT22;6832;51.186;3.236;2024-01-30T00:43:36;25.40;36.70
13521;DHT22;6832;51.186;3.236;2024-01-30T00:46:03;25.40;36.70
13521;DHT22;6832;51.186;3.236;2024-01-30T00:48:30;25.40;36.70
13521;DHT22;6832;51.186;3.236;2024-01-30T00:50:57;25.40;36.70
13521;DHT22;6832;51.186;3.236;2024-01-30T00:53:24;25.40;37.30
13521;DHT22;6832;51.186;3.236;2024-01-30T00:55:51;25.40;36.70
13521;DHT22;6832;51.186;3.236;2024-01-30T00:58:18;25.40;36.70
13521;DHT22;6832;51.186;3.236;2024-01-30T01:00:47;25.40;36.80
13521;DHT22;6832;51.186;3.236;2024-01-30T01:03:14;25.40;36.80
13521;DHT22;6832;51.186;3.236;2024-01-30T01:05:41;25.40;36.80
13521;DHT22;6832;51.186;3.236;2024-01-30T01:08:08;25.40;36.80
13521;DHT22;6832;51.186;3.236;2024-01-30T01:10:34;25.40;36.90
13521;DHT22;6832;51.186;3.236;2024-01-30T01:13:01;25.40;36.90
13521;DHT22;6832;51.186;3.236;2024-01-30T01:15:28;25.40;36.90
13521;DHT22;6832;51.186;3.236;2024-01-30T01:17:57;25.40;36.90
13521;DHT22;6832;51.186;3.236;2024-01-30T01:20:24;25.30;36.80
13521;DHT22;6832;51.186;3.236;2024-01-30T01:22:51;25.40;36.90
13521;DHT22;6832;51.186;3.236;2024-01-30T01:25:18;25.30;36.80
13521;DHT22;6832;51.186;3.236;2024-01-30T01:27:45;25.30;36.80
13521;DHT22;6832;51.186;3.236;2024-01-30T01:30:17;25.30;36.80
13521;DHT22;6832;51.186;3.236;2024-01-30T01:32:47;25.40;36.90
13521;DHT22;6832;51.186;3.236;2024-01-30T01:35:21;25.30;37.50
13521;DHT22;6832;51.186;3.236;2024-01-30T01:37:49;25.30;36.80
13521;DHT22;6832;51.186;3.236;2024-01-30T01:40:21;25.30;36.80
13521;DHT22;6832;51.186;3.236;2024-01-30T01:42:49;25.30;36.80
13521;DHT22;6832;51.186;3.236;2024-01-30T01:45:16;25.30;36.80
13521;DHT22;6832;51.186;3.236;2024-01-30T01:47:44;25.30;36.80
13521;DHT22;6832;51.186;3.236;2024-01-30T01:50:12;25.30;36.80
13521;DHT22;6832;51.186;3.236;2024-01-30T01:52:41;25.30;36.80
13521;DHT22;6832;51.186;3.236;2024-01-30T01:55:08;25.30;36.80
13521;DHT22;6832;51.186;3.236;2024-01-30T01:57:36;25.30;36.80
13521;DHT22;6832;51.186;3.236;2024-01-30T02:00:03;25.30;36.90
13521;DHT22;6832;51.186;3.236;2024-01-30T02:02:31;25.30;36.90
13521;DHT22;6832;51.186;3.236;2024-01-30T02:04:59;25.30;36.90
13521;DHT22;6832;51.186;3.236;2024-01-30T02:07:27;25.30;36.90
13521;DHT22;6832;51.186;3.236;2024-01-30T02:09:56;25.20;36.90
13521;DHT22;6832;51.186;3.236;2024-01-30T02:12:23;25.30;37.00
13521;DHT22;6832;51.186;3.236;2024-01-30T02:14:50;25.30;37.00
13521;DHT22;6832;51.186;3.236;2024-01-30T02:17:17;25.30;37.00
13521;DHT22;6832;51.186;3.236;2024-01-30T02:19:44;25.20;36.90
13521;DHT22;6832;51.186;3.236;2024-01-30T02:22:13;25.20;36.90
13521;DHT22;6832;51.186;3.236;2024-01-30T02:24:40;25.20;37.00
13521;DHT22;6832;51.186;3.236;2024-01-30T02:27:07;25.20;37.00
13521;DHT22;6832;51.186;3.236;2024-01-30T02:29:33;25.20;37.00
13521;DHT22;6832;51.186;3.236;2024-01-30T02:32:00;25.20;37.00
13521;DHT22;6832;51.186;3.236;2024-01-30T02:34:27;25.20;37.00
13521;DHT22;6832;51.186;3.236;2024-01-30T02:36:54;25.20;37.00
13521;DHT22;6832;51.186;3.236;2024-01-30T02:39:23;25.20;37.00
13521;DHT22;6832;51.186;3.236;2024-01-30T02:41:49;25.20;37.00
13521;DHT22;6832;51.186;3.236;2024-01-30T02:44:17;25.20;37.00
13521;DHT22;6832;51.186;3.236;2024-01-30T02:46:44;25.20;37.10
13521;DHT22;6832;51.186;3.236;2024-01-30T02:49:11;25.20;37.10
13521;DHT22;6832;51.186;3.236;2024-01-30T02:51:38;25.20;37.10
13521;DHT22;6832;51.186;3.236;2024-01-30T02:54:04;25.20;37.10
13521;DHT22;6832;51.186;3.236;2024-01-30T02:56:33;25.10;37.00
13521;DHT22;6832;51.186;3.236;2024-01-30T02:59:00;25.20;37.10
13521;DHT22;6832;51.186;3.236;2024-01-30T03:01:27;25.10;37.00
13521;DHT22;6832;51.186;3.236;2024-01-30T03:03:54;25.20;37.10
13521;DHT22;6832;51.186;3.236;2024-01-30T03:06:20;25.20;37.10
13521;DHT22;6832;51.186;3.236;2024-01-30T03:08:48;25.20;37.20
13521;DHT22;6832;51.186;3.236;2024-01-30T03:11:15;25.10;37.10
13521;DHT22;6832;51.186;3.236;2024-01-30T03:13:43;25.10;37.10
13521;DHT22;6832;51.186;3.236;2024-01-30T03:16:10;25.10;37.10
13521;DHT22;6832;51.186;3.236;2024-01-30T03:18:37;25.10;37.10
13521;DHT22;6832;51.186;3.236;2024-01-30T03:21:04;25.10;37.20
13521;DHT22;6832;51.186;3.236;2024-01-30T03:23:31;25.10;37.20
13521;DHT22;6832;51.186;3.236;2024-01-30T03:25:58;25.10;37.20
13521;DHT22;6832;51.186;3.236;2024-01-30T03:28:25;25.10;37.20
13521;DHT22;6832;51.186;3.236;2024-01-30T03:30:53;25.10;37.20
13521;DHT22;6832;51.186;3.236;2024-01-30T03:33:20;25.10;37.20
13521;DHT22;6832;51.186;3.236;2024-01-30T03:35:47;25.10;37.20
13521;DHT22;6832;51.186;3.236;2024-01-30T03:38:14;25.10;37.20
13521;DHT22;6832;51.186;3.236;2024-01-30T03:40:41;25.10;37.90
13521;DHT22;6832;51.186;3.236;2024-01-30T03:43:08;25.10;37.30
13521;DHT22;6832;51.186;3.236;2024-01-30T03:45:35;25.10;37.20
13521;DHT22;6832;51.186;3.236;2024-01-30T03:48:04;25.10;37.30
13521;DHT22;6832;51.186;3.236;2024-01-30T03:50:31;25.00;37.20
13521;DHT22;6832;51.186;3.236;2024-01-30T03:52:58;25.00;37.30
13521;DHT22;6832;51.186;3.236;2024-01-30T03:55:25;25.00;37.30
13521;DHT22;6832;51.186;3.236;2024-01-30T03:57:52;25.00;37.30
13521;DHT22;6832;51.186;3.236;2024-01-30T04:00:19;25.00;37.30
13521;DHT22;6832;51.186;3.236;2024-01-30T04:02:46;25.00;37.30
13521;DHT22;6832;51.186;3.236;2024-01-30T04:05:14;25.00;37.30
13521;DHT22;6832;51.186;3.236;2024-01-30T04:07:41;25.10;37.40
13521;DHT22;6832;51.186;3.236;2024-01-30T04:10:09;25.00;37.40
13521;DHT22;6832;51.186;3.236;2024-01-30T04:12:36;25.00;37.30
13521;DHT22;6832;51.186;3.236;2024-01-30T04:15:03;25.00;37.30
13521;DHT22;6832;51.186;3.236;2024-01-30T04:17:30;25.00;37.40
13521;DHT22;6832;51.186;3.236;2024-01-30T04:19:58;25.00;37.40
13521;DHT22;6832;51.186;3.236;2024-01-30T04:22:26;25.00;37.40
13521;DHT22;6832;51.186;3.236;2024-01-30T04:24:53;25.00;37.40
13521;DHT22;6832;51.186;3.236;2024-01-30T04:27:20;25.00;37.40
13521;DHT22;6832;51.186;3.236;2024-01-30T04:29:47;25.00;37.40
13521;DHT22;6832;51.186;3.236;2024-01-30T04:32:14;25.00;37.40
13521;DHT22;6832;51.186;3.236;2024-01-30T04:34:41;25.00;37.40
13521;DHT22;6832;51.186;3.236;2024-01-30T04:37:07;25.00;37.40
13521;DHT22;6832;51.186;3.236;2024-01-30T04:39:36;25.00;37.40
13521;DHT22;6832;51.186;3.236;2024-01-30T04:42:03;25.00;37.40
13521;DHT22;6832;51.186;3.236;2024-01-30T04:44:30;25.00;37.40
13521;DHT22;6832;51.186;3.236;2024-01-30T04:46:57;25.00;37.50
13521;DHT22;6832;51.186;3.236;2024-01-30T04:49:26;25.00;37.50
13521;DHT22;6832;51.186;3.236;2024-01-30T04:51:54;25.00;38.10
13521;DHT22;6832;51.186;3.236;2024-01-30T04:54:21;25.00;37.50
13521;DHT22;6832;51.186;3.236;2024-01-30T04:56:49;25.00;37.60
13521;DHT22;6832;51.186;3.236;2024-01-30T04:59:16;25.00;37.50
13521;DHT22;6832;51.186;3.236;2024-01-30T05:01:44;25.00;37.50
13521;DHT22;6832;51.186;3.236;2024-01-30T05:04:10;25.00;37.60
13521;DHT22;6832;51.186;3.236;2024-01-30T05:06:37;25.00;37.60
13521;DHT22;6832;51.186;3.236;2024-01-30T05:09:04;25.00;37.60
13521;DHT22;6832;51.186;3.236;2024-01-30T05:11:31;24.90;37.50
13521;DHT22;6832;51.186;3.236;2024-01-30T05:14:04;25.00;37.60
13521;DHT22;6832;51.186;3.236;2024-01-30T05:16:31;24.90;37.50
13521;DHT22;6832;51.186;3.236;2024-01-30T05:18:59;24.90;37.50
13521;DHT22;6832;51.186;3.236;2024-01-30T05:21:26;24.90;37.60
13521;DHT22;6832;51.186;3.236;2024-01-30T05:23:53;24.90;37.50
13521;DHT22;6832;51.186;3.236;2024-01-30T05:26:20;25.00;37.60
13521;DHT22;6832;51.186;3.236;2024-01-30T05:28:48;24.90;37.60
13521;DHT22;6832;51.186;3.236;2024-01-30T05:31:16;25.00;37.60
13521;DHT22;6832;51.186;3.236;2024-01-30T05:33:43;24.90;37.60
13521;DHT22;6832;51.186;3.236;2024-01-30T05:36:11;24.90;37.50
13521;DHT22;6832;51.186;3.236;2024-01-30T05:38:38;24.90;37.60
13521;DHT22;6832;51.186;3.236;2024-01-30T05:41:05;24.90;37.60
13521;DHT22;6832;51.186;3.236;2024-01-30T05:43:32;24.90;37.60
13521;DHT22;6832;51.186;3.236;2024-01-30T05:45:59;24.90;37.60
13521;DHT22;6832;51.186;3.236;2024-01-30T05:48:28;24.90;37.60
13521;DHT22;6832;51.186;3.236;2024-01-30T05:50:55;24.90;37.60
13521;DHT22;6832;51.186;3.236;2024-01-30T05:53:22;24.90;37.60
13521;DHT22;6832;51.186;3.236;2024-01-30T05:55:49;24.90;37.60
13521;DHT22;6832;51.186;3.236;2024-01-30T05:58:15;24.90;37.70
13521;DHT22;6832;51.186;3.236;2024-01-30T06:00:42;24.90;37.70
13521;DHT22;6832;51.186;3.236;2024-01-30T06:03:09;24.90;37.70
13521;DHT22;6832;51.186;3.236;2024-01-30T06:05:38;24.90;37.70
13521;DHT22;6832;51.186;3.236;2024-01-30T06:08:05;24.90;37.70
13521;DHT22;6832;51.186;3.236;2024-01-30T06:10:32;24.90;37.70
13521;DHT22;6832;51.186;3.236;2024-01-30T06:12:59;24.90;37.80
13521;DHT22;6832;51.186;3.236;2024-01-30T06:15:26;24.90;37.70
13521;DHT22;6832;51.186;3.236;2024-01-30T06:17:55;24.90;38.40
13521;DHT22;6832;51.186;3.236;2024-01-30T06:20:22;24.90;37.70
13521;DHT22;6832;51.186;3.236;2024-01-30T06:22:50;24.90;37.80
13521;DHT22;6832;51.186;3.236;2024-01-30T06:25:17;24.90;38.40
13521;DHT22;6832;51.186;3.236;2024-01-30T06:27:44;24.90;37.80
13521;DHT22;6832;51.186;3.236;2024-01-30T06:30:12;24.80;37.70
13521;DHT22;6832;51.186;3.236;2024-01-30T06:32:39;24.80;37.70
13521;DHT22;6832;51.186;3.236;2024-01-30T06:35:06;24.80;37.70
13521;DHT22;6832;51.186;3.236;2024-01-30T06:37:33;24.80;37.80
13521;DHT22;6832;51.186;3.236;2024-01-30T06:40:02;24.80;38.30
13521;DHT22;6832;51.186;3.236;2024-01-30T06:42:30;24.80;37.80
13521;DHT22;6832;51.186;3.236;2024-01-30T06:44:57;24.80;37.80
13521;DHT22;6832;51.186;3.236;2024-01-30T06:47:24;24.80;37.80
13521;DHT22;6832;51.186;3.236;2024-01-30T06:49:51;24.80;37.80
13521;DHT22;6832;51.186;3.236;2024-01-30T06:52:19;24.80;37.80
13521;DHT22;6832;51.186;3.236;2024-01-30T06:54:46;24.90;37.90
13521;DHT22;6832;51.186;3.236;2024-01-30T06:57:14;24.80;37.80
13521;DHT22;6832;51.186;3.236;2024-01-30T06:59:41;24.80;37.80
13521;DHT22;6832;51.186;3.236;2024-01-30T07:02:09;24.80;37.80
13521;DHT22;6832;51.186;3.236;2024-01-30T07:04:36;24.80;38.20
13521;DHT22;6832;51.186;3.236;2024-01-30T07:07:05;24.70;38.00
13521;DHT22;6832;51.186;3.236;2024-01-30T07:09:37;24.80;38.10
13521;DHT22;6832;51.186;3.236;2024-01-30T07:12:04;24.80;38.10
13521;DHT22;6832;51.186;3.236;2024-01-30T07:14:33;24.80;38.10
13521;DHT22;6832;51.186;3.236;2024-01-30T07:17:00;24.80;38.00
13521;DHT22;6832;51.186;3.236;2024-01-30T07:19:27;24.80;38.00
13521;DHT22;6832;51.186;3.236;2024-01-30T07:21:54;24.80;38.00
13521;DHT22;6832;51.186;3.236;2024-01-30T07:24:21;24.80;38.00
13521;DHT22;6832;51.186;3.236;2024-01-30T07:26:48;24.80;38.00
13521;DHT22;6832;51.186;3.236;2024-01-30T07:29:15;24.80;38.00
13521;DHT22;6832;51.186;3.236;2024-01-30T07:31:43;24.80;38.00
13521;DHT22;6832;51.186;3.236;2024-01-30T07:34:10;24.80;38.10
13521;DHT22;6832;51.186;3.236;2024-01-30T07:36:37;24.80;38.10
13521;DHT22;6832;51.186;3.236;2024-01-30T07:39:04;24.80;38.10
13521;DHT22;6832;51.186;3.236;2024-01-30T07:41:31;24.80;38.10
13521;DHT22;6832;51.186;3.236;2024-01-30T07:43:58;24.80;38.10
13521;DHT22;6832;51.186;3.236;2024-01-30T07:46:25;24.80;38.10
13521;DHT22;6832;51.186;3.236;2024-01-30T07:48:53;24.80;38.10
13521;DHT22;6832;51.186;3.236;2024-01-30T07:51:21;24.80;38.10
13521;DHT22;6832;51.186;3.236;2024-01-30T07:53:48;24.80;38.10
13521;DHT22;6832;51.186;3.236;2024-01-30T07:56:15;24.80;38.10
13521;DHT22;6832;51.186;3.236;2024-01-30T07:58:42;24.80;38.10
13521;DHT22;6832;51.186;3.236;2024-01-30T08:01:10;24.80;38.10
13521;DHT22;6832;51.186;3.236;2024-01-30T08:03:37;24.80;38.10
13521;DHT22;6832;51.186;3.236;2024-01-30T08:06:07;24.80;38.10
13521;DHT22;6832;51.186;3.236;2024-01-30T08:08:34;24.80;38.10
13521;DHT22;6832;51.186;3.236;2024-01-30T08:11:03;24.80;38.10
13521;DHT22;6832;51.186;3.236;2024-01-30T08:13:30;24.80;38.10
13521;DHT22;6832;51.186;3.236;2024-01-30T08:15:57;24.80;38.10
13521;DHT22;6832;51.186;3.236;2024-01-30T08:18:24;24.80;38.10
13521;DHT22;6832;51.186;3.236;2024-01-30T08:20:52;24.80;38.10
13521;DHT22;6832;51.186;3.236;2024-01-30T08:23:20;24.80;38.10
13521;DHT22;6832;51.186;3.236;2024-01-30T08:25:47;24.80;38.10
13521;DHT22;6832;51.186;3.236;2024-01-30T08:28:14;24.80;38.10
13521;DHT22;6832;51.186;3.236;2024-01-30T08:30:41;24.80;38.10
13521;DHT22;6832;51.186;3.236;2024-01-30T08:33:07;24.80;38.10
13521;DHT22;6832;51.186;3.236;2024-01-30T08:35:34;24.70;38.10
13521;DHT22;6832;51.186;3.236;2024-01-30T08:38:01;24.70;38.00
13521;DHT22;6832;51.186;3.236;2024-01-30T08:40:30;24.70;38.10
13521;DHT22;6832;51.186;3.236;2024-01-30T08:42:57;24.70;38.10
13521;DHT22;6832;51.186;3.236;2024-01-30T08:45:24;24.80;38.20
13521;DHT22;6832;51.186;3.236;2024-01-30T08:47:51;24.70;38.10
13521;DHT22;6832;51.186;3.236;2024-01-30T08:50:18;24.70;38.10
13521;DHT22;6832;51.186;3.236;2024-01-30T08:52:45;24.80;38.20
13521;DHT22;6832;51.186;3.236;2024-01-30T08:55:12;24.70;38.20
13521;DHT22;6832;51.186;3.236;2024-01-30T08:57:40;24.70;38.10
13521;DHT22;6832;51.186;3.236;2024-01-30T09:00:07;24.80;38.30
13521;DHT22;6832;51.186;3.236;2024-01-30T09:02:35;24.80;38.30
13521;DHT22;6832;51.186;3.236;2024-01-30T09:05:03;24.80;38.30
13521;DHT22;6832;51.186;3.236;2024-01-30T09:07:30;24.70;38.20
13521;DHT22;6832;51.186;3.236;2024-01-30T09:09:57;24.70;38.30
13521;DHT22;6832;51.186;3.236;2024-01-30T09:12:23;24.80;38.30
13521;DHT22;6832;51.186;3.236;2024-01-30T09:14:52;24.70;38.30
13521;DHT22;6832;51.186;3.236;2024-01-30T09:17:19;24.70;38.30
13521;DHT22;6832;51.186;3.236;2024-01-30T09:19:46;24.80;38.40
13521;DHT22;6832;51.186;3.236;2024-01-30T09:22:14;24.70;38.30
13521;DHT22;6832;51.186;3.236;2024-01-30T09:24:41;24.70;38.30
13521;DHT22;6832;51.186;3.236;2024-01-30T09:27:16;24.70;38.30
13521;DHT22;6832;51.186;3.236;2024-01-30T09:29:45;24.70;38.30
13521;DHT22;6832;51.186;3.236;2024-01-30T09:32:14;24.70;38.20
13521;DHT22;6832;51.186;3.236;2024-01-30T09:34:40;24.70;38.30
13521;DHT22;6832;51.186;3.236;2024-01-30T09:37:07;24.70;38.30
13521;DHT22;6832;51.186;3.236;2024-01-30T09:39:34;24.70;38.30
13521;DHT22;6832;51.186;3.236;2024-01-30T09:42:05;24.70;38.30
13521;DHT22;6832;51.186;3.236;2024-01-30T09:44:35;24.70;38.40
13521;DHT22;6832;51.186;3.236;2024-01-30T09:47:05;24.70;38.50
13521;DHT22;6832;51.186;3.236;2024-01-30T09:49:34;24.70;38.40
13521;DHT22;6832;51.186;3.236;2024-01-30T09:52:02;24.70;38.40
13521;DHT22;6832;51.186;3.236;2024-01-30T09:54:30;24.70;38.50
13521;DHT22;6832;51.186;3.236;2024-01-30T09:56:57;24.70;38.50
13521;DHT22;6832;51.186;3.236;2024-01-30T09:59:25;24.70;38.50
13521;DHT22;6832;51.186;3.236;2024-01-30T10:01:52;24.70;38.50
13521;DHT22;6832;51.186;3.236;2024-01-30T10:04:19;24.80;38.50
13521;DHT22;6832;51.186;3.236;2024-01-30T10:06:47;24.70;38.50
13521;DHT22;6832;51.186;3.236;2024-01-30T10:09:17;24.70;38.50
13521;DHT22;6832;51.186;3.236;2024-01-30T10:11:44;24.70;38.50
13521;DHT22;6832;51.186;3.236;2024-01-30T10:14:11;24.70;38.50
13521;DHT22;6832;51.186;3.236;2024-01-30T10:16:38;24.80;38.60
13521;DHT22;6832;51.186;3.236;2024-01-30T10:19:05;24.70;38.50
13521;DHT22;6832;51.186;3.236;2024-01-30T10:21:32;24.70;38.50
13521;DHT22;6832;51.186;3.236;2024-01-30T10:24:01;24.80;38.50
13521;DHT22;6832;51.186;3.236;2024-01-30T10:26:28;24.70;38.50
13521;DHT22;6832;51.186;3.236;2024-01-30T10:28:58;24.70;38.50
13521;DHT22;6832;51.186;3.236;2024-01-30T10:31:26;24.80;38.60
13521;DHT22;6832;51.186;3.236;2024-01-30T10:33:52;24.80;39.20
13521;DHT22;6832;51.186;3.236;2024-01-30T10:36:22;24.80;38.50
13521;DHT22;6832;51.186;3.236;2024-01-30T10:38:53;24.70;38.50
13521;DHT22;6832;51.186;3.236;2024-01-30T10:41:26;24.70;38.50
13521;DHT22;6832;51.186;3.236;2024-01-30T10:44:09;24.70;38.50
13521;DHT22;6832;51.186;3.236;2024-01-30T10:46:38;24.80;38.60
13521;DHT22;6832;51.186;3.236;2024-01-30T10:49:05;24.70;38.50
13521;DHT22;6832;51.186;3.236;2024-01-30T10:51:34;24.70;38.50
13521;DHT22;6832;51.186;3.236;2024-01-30T10:54:03;24.70;38.50
13521;DHT22;6832;51.186;3.236;2024-01-30T10:56:34;24.70;38.50
13521;DHT22;6832;51.186;3.236;2024-01-30T10:59:01;24.70;38.50
13521;DHT22;6832;51.186;3.236;2024-01-30T11:01:30;24.70;38.50
13521;DHT22;6832;51.186;3.236;2024-01-30T11:03:57;24.70;38.50
13521;DHT22;6832;51.186;3.236;2024-01-30T11:06:25;24.70;38.50
13521;DHT22;6832;51.186;3.236;2024-01-30T11:09:01;24.70;38.50
13521;DHT22;6832;51.186;3.236;2024-01-30T11:11:30;24.70;38.60
13521;DHT22;6832;51.186;3.236;2024-01-30T11:14:01;24.70;38.50
13521;DHT22;6832;51.186;3.236;2024-01-30T11:16:31;24.70;38.60
13521;DHT22;6832;51.186;3.236;2024-01-30T11:19:00;24.70;38.60
13521;DHT22;6832;51.186;3.236;2024-01-30T11:21:27;24.70;38.60
13521;DHT22;6832;51.186;3.236;2024-01-30T11:23:55;24.70;38.60
13521;DHT22;6832;51.186;3.236;2024-01-30T11:26:27;24.70;38.60
13521;DHT22;6832;51.186;3.236;2024-01-30T11:28:55;24.60;38.50
13521;DHT22;6832;51.186;3.236;2024-01-30T11:31:23;24.70;38.60
13521;DHT22;6832;51.186;3.236;2024-01-30T11:33:52;24.70;38.60
13521;DHT22;6832;51.186;3.236;2024-01-30T11:36:25;24.70;38.60
13521;DHT22;6832;51.186;3.236;2024-01-30T11:38:52;24.70;38.70
13521;DHT22;6832;51.186;3.236;2024-01-30T11:41:19;24.60;38.60
13521;DHT22;6832;51.186;3.236;2024-01-30T11:43:51;24.70;38.70
13521;DHT22;6832;51.186;3.236;2024-01-30T11:46:18;24.60;38.60
13521;DHT22;6832;51.186;3.236;2024-01-30T11:48:47;24.60;38.60
13521;DHT22;6832;51.186;3.236;2024-01-30T11:51:14;24.60;38.60
13521;DHT22;6832;51.186;3.236;2024-01-30T11:53:44;24.60;38.60
13521;DHT22;6832;51.186;3.236;2024-01-30T11:56:12;24.60;38.60
13521;DHT22;6832;51.186;3.236;2024-01-30T11:58:42;24.60;38.70
13521;DHT22;6832;51.186;3.236;2024-01-30T12:01:10;24.60;38.70
13521;DHT22;6832;51.186;3.236;2024-01-30T12:03:37;24.60;38.70
13521;DHT22;6832;51.186;3.236;2024-01-30T12:06:06;24.60;38.70
13521;DHT22;6832;51.186;3.236;2024-01-30T12:08:33;24.60;38.70
13521;DHT22;6832;51.186;3.236;2024-01-30T12:11:00;24.60;38.70
13521;DHT22;6832;51.186;3.236;2024-01-30T12:13:31;24.60;38.70
13521;DHT22;6832;51.186;3.236;2024-01-30T12:15:58;24.60;38.70
13521;DHT22;6832;51.186;3.236;2024-01-30T12:18:25;24.60;38.70
13521;DHT22;6832;51.186;3.236;2024-01-30T12:20:58;24.60;38.70
13521;DHT22;6832;51.186;3.236;2024-01-30T12:23:28;24.60;38.70
13521;DHT22;6832;51.186;3.236;2024-01-30T12:25:55;24.60;38.70
13521;DHT22;6832;51.186;3.236;2024-01-30T12:28:22;24.60;39.30
13521;DHT22;6832;51.186;3.236;2024-01-30T12:30:49;24.60;38.70
13521;DHT22;6832;51.186;3.236;2024-01-30T12:33:18;24.60;38.70
13521;DHT22;6832;51.186;3.236;2024-01-30T12:35:46;24.60;38.70
13521;DHT22;6832;51.186;3.236;2024-01-30T12:38:13;24.60;38.70
13521;DHT22;6832;51.186;3.236;2024-01-30T12:40:42;24.60;38.70
13521;DHT22;6832;51.186;3.236;2024-01-30T12:43:09;24.50;38.60
13521;DHT22;6832;51.186;3.236;2024-01-30T12:45:36;24.60;38.80
13521;DHT22;6832;51.186;3.236;2024-01-30T12:48:04;24.50;38.60
13521;DHT22;6832;51.186;3.236;2024-01-30T12:50:31;24.50;38.60
13521;DHT22;6832;51.186;3.236;2024-01-30T12:52:58;24.60;38.80
13521;DHT22;6832;51.186;3.236;2024-01-30T12:55:25;24.60;38.80
13521;DHT22;6832;51.186;3.236;2024-01-30T12:57:55;24.60;38.70
13521;DHT22;6832;51.186;3.236;2024-01-30T13:00:22;24.50;38.60
13521;DHT22;6832;51.186;3.236;2024-01-30T13:02:49;24.50;38.60
13521;DHT22;6832;51.186;3.236;2024-01-30T13:05:16;24.60;38.70
13521;DHT22;6832;51.186;3.236;2024-01-30T13:07:43;24.60;38.70
13521;DHT22;6832;51.186;3.236;2024-01-30T13:10:10;24.60;38.70
13521;DHT22;6832;51.186;3.236;2024-01-30T13:12:37;24.60;38.70
13521;DHT22;6832;51.186;3.236;2024-01-30T13:15:06;24.60;38.70
13521;DHT22;6832;51.186;3.236;2024-01-30T13:17:33;24.50;38.60
13521;DHT22;6832;51.186;3.236;2024-01-30T13:20:00;24.60;38.70
13521;DHT22;6832;51.186;3.236;2024-01-30T13:22:29;24.50;39.10
13521;DHT22;6832;51.186;3.236;2024-01-30T13:24:56;24.60;38.70
13521;DHT22;6832;51.186;3.236;2024-01-30T13:27:24;24.50;38.70
13521;DHT22;6832;51.186;3.236;2024-01-30T13:29:51;24.50;38.60
13521;DHT22;6832;51.186;3.236;2024-01-30T13:32:19;24.50;38.60
13521;DHT22;6832;51.186;3.236;2024-01-30T13:34:46;24.50;38.70
13521;DHT22;6832;51.186;3.236;2024-01-30T13:37:13;24.60;38.80
13521;DHT22;6832;51.186;3.236;2024-01-30T13:39:40;24.60;38.70
13521;DHT22;6832;51.186;3.236;2024-01-30T13:42:07;24.50;38.70
13521;DHT22;6832;51.186;3.236;2024-01-30T13:44:35;24.50;38.70
13521;DHT22;6832;51.186;3.236;2024-01-30T13:47:02;24.60;38.80
13521;DHT22;6832;51.186;3.236;2024-01-30T13:49:30;24.50;38.80
13521;DHT22;6832;51.186;3.236;2024-01-30T13:51:57;24.50;38.80
13521;DHT22;6832;51.186;3.236;2024-01-30T13:54:24;24.50;39.30
13521;DHT22;6832;51.186;3.236;2024-01-30T13:56:51;24.50;38.80
13521;DHT22;6832;51.186;3.236;2024-01-30T13:59:18;24.50;38.80
13521;DHT22;6832;51.186;3.236;2024-01-30T14:01:50;24.50;38.80
13521;DHT22;6832;51.186;3.236;2024-01-30T14:04:16;24.50;38.80
13521;DHT22;6832;51.186;3.236;2024-01-30T14:06:45;24.50;38.80
13521;DHT22;6832;51.186;3.236;2024-01-30T14:09:12;24.50;38.80
13521;DHT22;6832;51.186;3.236;2024-01-30T14:11:41;24.50;38.80
13521;DHT22;6832;51.186;3.236;2024-01-30T14:14:09;24.50;38.80
13521;DHT22;6832;51.186;3.236;2024-01-30T14:16:35;24.50;38.80
13521;DHT22;6832;51.186;3.236;2024-01-30T14:19:02;24.50;38.80
13521;DHT22;6832;51.186;3.236;2024-01-30T14:21:29;24.50;38.90
13521;DHT22;6832;51.186;3.236;2024-01-30T14:23:57;24.50;38.90
13521;DHT22;6832;51.186;3.236;2024-01-30T14:26:25;24.50;39.50
13521;DHT22;6832;51.186;3.236;2024-01-30T14:28:51;24.50;38.90
13521;DHT22;6832;51.186;3.236;2024-01-30T14:31:18;24.50;38.90
13521;DHT22;6832;51.186;3.236;2024-01-30T14:33:46;24.50;38.90
13521;DHT22;6832;51.186;3.236;2024-01-30T14:36:13;24.50;39.00
13521;DHT22;6832;51.186;3.236;2024-01-30T14:38:40;24.50;38.90
13521;DHT22;6832;51.186;3.236;2024-01-30T14:41:08;24.50;38.90
13521;DHT22;6832;51.186;3.236;2024-01-30T14:43:35;24.50;38.90
13521;DHT22;6832;51.186;3.236;2024-01-30T14:46:03;24.50;38.90
13521;DHT22;6832;51.186;3.236;2024-01-30T14:48:32;24.50;38.90
13521;DHT22;6832;51.186;3.236;2024-01-30T14:50:59;24.50;39.00
13521;DHT22;6832;51.186;3.236;2024-01-30T14:53:26;24.50;39.00
13521;DHT22;6832;51.186;3.236;2024-01-30T14:55:53;24.50;39.00
13521;DHT22;6832;51.186;3.236;2024-01-30T14:58:21;24.40;38.80
13521;DHT22;6832;51.186;3.236;2024-01-30T15:00:48;24.50;39.00
13521;DHT22;6832;51.186;3.236;2024-01-30T15:03:15;24.40;38.90
13521;DHT22;6832;51.186;3.236;2024-01-30T15:05:42;24.40;38.90
13521;DHT22;6832;51.186;3.236;2024-01-30T15:08:09;24.40;38.90
13521;DHT22;6832;51.186;3.236;2024-01-30T15:10:36;24.50;39.00
13521;DHT22;6832;51.186;3.236;2024-01-30T15:13:03;24.40;38.90
13521;DHT22;6832;51.186;3.236;2024-01-30T15:15:31;24.40;38.90
13521;DHT22;6832;51.186;3.236;2024-01-30T15:17:58;24.40;38.90
13521;DHT22;6832;51.186;3.236;2024-01-30T15:20:25;24.40;38.90
13521;DHT22;6832;51.186;3.236;2024-01-30T15:22:52;24.40;38.90
13521;DHT22;6832;51.186;3.236;2024-01-30T15:25:19;24.40;38.90
13521;DHT22;6832;51.186;3.236;2024-01-30T15:27:46;24.40;39.00
13521;DHT22;6832;51.186;3.236;2024-01-30T15:30:13;24.40;39.00
13521;DHT22;6832;51.186;3.236;2024-01-30T15:32:43;24.20;38.80
13521;DHT22;6832;51.186;3.236;2024-01-30T15:35:10;24.40;39.00
13521;DHT22;6832;51.186;3.236;2024-01-30T15:37:37;24.40;39.00
13521;DHT22;6832;51.186;3.236;2024-01-30T15:40:05;24.40;39.00
13521;DHT22;6832;51.186;3.236;2024-01-30T15:42:32;24.40;39.00
13521;DHT22;6832;51.186;3.236;2024-01-30T15:44:59;24.40;39.00
13521;DHT22;6832;51.186;3.236;2024-01-30T15:47:26;24.40;39.00